Time;durP1;ratioP1;P1;durP2;ratioP2;P2;SDS_P1;SDS_P2;PMS_P1;PMS_P2;Temp;Humidity;BMP_temperature;BMP_pressure;BME280_temperature;BME280_humidity;BME280_pressure;Samples;Min_cycle;Max_cycle;Signal;HPM_P1;HPM_P2
2021/03/07 00:00:41;;;;;;;23.45;15.15;;;7.00;59.30;;;;;;4977323;28;20035;-81
2021/03/07 00:03:06;;;;;;;25.58;16.65;;;7.00;59.40;;;;;;4975505;28;20101;-80
2021/03/07 00:05:32;;;;;;;22.88;14.48;;;7.00;59.60;;;;;;4976482;28;20476;-80
2021/03/07 00:07:58;;;;;;;21.23;14.68;;;7.10;59.20;;;;;;4977599;28;20049;-79
2021/03/07 00:10:24;;;;;;;23.75;14.70;;;7.10;59.30;;;;;;4977576;28;20034;-78
2021/03/07 00:12:50;;;;;;;24.48;16.75;;;7.10;58.90;;;;;;4974928;28;20046;-77
2021/03/07 00:15:18;;;;;;;25.50;15.98;;;7.20;58.40;;;;;;4976040;28;20038;-77
2021/03/07 00:17:46;;;;;;;21.55;14.70;;;7.20;58.40;;;;;;4976477;28;20121;-78
2021/03/07 00:20:16;;;;;;;20.88;14.02;;;7.20;58.30;;;;;;4974901;28;20205;-77
2021/03/07 00:22:43;;;;;;;23.75;15.15;;;7.20;58.70;;;;;;4976541;28;20082;-78
2021/03/07 00:25:11;;;;;;;21.80;14.73;;;7.20;58.80;;;;;;4975219;28;20050;-78
2021/03/07 00:27:38;;;;;;;25.38;14.95;;;7.20;58.90;;;;;;4979444;28;20046;-78
2021/03/07 00:30:09;;;;;;;21.88;14.98;;;7.10;58.70;;;;;;4981797;28;20042;-78
2021/03/07 00:32:35;;;;;;;23.98;16.63;;;7.10;58.60;;;;;;4978985;28;20039;-78
2021/03/07 00:35:01;;;;;;;23.33;14.38;;;7.10;58.60;;;;;;4976119;28;20035;-78
2021/03/07 00:37:27;;;;;;;21.10;14.10;;;7.10;58.70;;;;;;4976570;28;20041;-78
2021/03/07 00:39:53;;;;;;;19.52;13.40;;;7.00;59.20;;;;;;4976018;28;20034;-78
2021/03/07 00:42:18;;;;;;;22.63;14.77;;;7.00;59.50;;;;;;4976488;28;20531;-78
2021/03/07 00:44:44;;;;;;;22.52;14.55;;;7.00;59.30;;;;;;4975933;28;20081;-78
2021/03/07 00:47:14;;;;;;;20.50;13.70;;;7.10;59.40;;;;;;4976145;28;20461;-78
2021/03/07 00:49:40;;;;;;;21.08;14.18;;;7.10;59.40;;;;;;4974206;28;20027;-78
2021/03/07 00:52:06;;;;;;;22.23;15.00;;;7.10;59.40;;;;;;4976513;28;20125;-80
2021/03/07 00:54:32;;;;;;;23.13;15.27;;;7.10;59.70;;;;;;4973946;28;20177;-81
2021/03/07 00:56:58;;;;;;;24.67;15.00;;;7.00;59.70;;;;;;4974534;28;20057;-81
2021/03/07 00:59:24;;;;;;;21.95;14.82;;;7.00;59.60;;;;;;4975707;28;20047;-81
2021/03/07 01:01:50;;;;;;;29.35;15.18;;;7.00;59.30;;;;;;4975612;28;20057;-81
2021/03/07 01:04:16;;;;;;;20.00;14.30;;;7.00;59.20;;;;;;4975362;28;20039;-80
2021/03/07 01:06:42;;;;;;;24.98;14.15;;;7.00;59.50;;;;;;4975175;28;20053;-81
2021/03/07 01:09:08;;;;;;;21.52;14.63;;;7.00;59.60;;;;;;4974011;28;20114;-81
2021/03/07 01:11:34;;;;;;;21.48;14.75;;;7.00;60.20;;;;;;4975622;28;20130;-80
2021/03/07 01:14:00;;;;;;;20.67;14.75;;;7.10;59.50;;;;;;4975861;28;20070;-80
2021/03/07 01:16:26;;;;;;;21.50;14.05;;;7.10;59.50;;;;;;4975596;28;20045;-81
2021/03/07 01:18:52;;;;;;;21.55;14.25;;;7.10;60.00;;;;;;4975427;28;20077;-81
2021/03/07 01:21:19;;;;;;;20.38;14.27;;;7.10;59.60;;;;;;4976036;28;20516;-81
2021/03/07 01:23:44;;;;;;;26.33;14.98;;;7.00;59.90;;;;;;4975674;28;20050;-81
2021/03/07 01:26:11;;;;;;;24.25;14.43;;;7.00;60.10;;;;;;4974648;28;20097;-80
2021/03/07 01:28:37;;;;;;;19.73;13.77;;;7.00;60.10;;;;;;4975823;28;20042;-81
2021/03/07 01:31:03;;;;;;;22.55;14.70;;;7.00;60.20;;;;;;4974445;28;20038;-80
2021/03/07 01:33:29;;;;;;;21.83;14.85;;;7.00;60.40;;;;;;4975295;28;20038;-80
2021/03/07 01:35:55;;;;;;;23.02;14.52;;;7.00;60.40;;;;;;4975827;28;20546;-80
2021/03/07 01:38:21;;;;;;;25.75;17.08;;;7.10;60.60;;;;;;4981328;28;20440;-80
2021/03/07 01:40:52;;;;;;;25.92;16.35;;;7.10;60.40;;;;;;4981855;28;20039;-80
2021/03/07 01:43:21;;;;;;;24.35;15.35;;;7.10;60.40;;;;;;4979308;28;20046;-78
2021/03/07 01:45:47;;;;;;;79.22;41.78;;;7.20;60.10;;;;;;4975664;28;20480;-80
2021/03/07 01:48:14;;;;;;;26.02;17.45;;;7.20;60.00;;;;;;4975582;28;20047;-80
2021/03/07 01:50:42;;;;;;;21.83;14.45;;;7.20;60.00;;;;;;4974037;28;20510;-80
2021/03/07 01:53:09;;;;;;;23.02;14.43;;;7.20;60.10;;;;;;4975309;28;20408;-80
2021/03/07 01:55:37;;;;;;;24.15;14.88;;;7.10;60.30;;;;;;4975477;28;20050;-80
2021/03/07 01:58:38;;;;;;;21.35;14.23;;;7.10;60.60;;;;;;4975799;28;20043;-81
2021/03/07 02:01:06;;;;;;;23.35;14.43;;;7.10;60.50;;;;;;4973957;28;20472;-79
2021/03/07 02:03:32;;;;;;;23.83;13.85;;;7.10;60.30;;;;;;4975028;28;20069;-81
2021/03/07 02:05:58;;;;;;;22.90;14.95;;;7.10;60.30;;;;;;4977382;28;20043;-81
2021/03/07 02:08:24;;;;;;;39.15;22.85;;;7.10;60.50;;;;;;4978801;28;20129;-81
2021/03/07 02:11:01;;;;;;;30.98;18.17;;;7.20;60.20;;;;;;4977234;28;20053;-79
2021/03/07 02:13:32;;;;;;;22.73;14.80;;;7.20;60.00;;;;;;4978571;28;20096;-81
2021/03/07 02:16:08;;;;;;;20.70;13.52;;;7.20;60.30;;;;;;4978872;28;20054;-78
2021/03/07 02:18:38;;;;;;;23.23;14.48;;;7.20;60.30;;;;;;4977042;28;20066;-81
2021/03/07 02:21:15;;;;;;;52.30;26.27;;;7.20;60.70;;;;;;4976874;28;20058;-81
2021/03/07 02:24:19;;;;;;;67.20;30.73;;;7.10;60.50;;;;;;4978559;28;20073;-81
2021/03/07 02:26:47;;;;;;;37.78;22.05;;;7.20;60.30;;;;;;4978355;28;20416;-81
2021/03/07 02:29:14;;;;;;;42.38;21.55;;;7.20;60.50;;;;;;4978508;28;20473;-81
2021/03/07 02:31:44;;;;;;;78.72;32.00;;;7.20;60.50;;;;;;4977158;28;20039;-81
2021/03/07 02:34:37;;;;;;;69.00;27.95;;;7.10;61.00;;;;;;4978210;28;20045;-81
2021/03/07 02:37:07;;;;;;;67.35;30.40;;;7.10;61.10;;;;;;4977850;28;20054;-81
2021/03/07 02:39:35;;;;;;;87.90;36.25;;;7.20;61.60;;;;;;4978214;28;20175;-81
2021/03/07 02:42:11;;;;;;;22.15;15.00;;;7.10;61.10;;;;;;4978741;28;20133;-81
2021/03/07 02:44:40;;;;;;;20.13;13.63;;;7.20;61.00;;;;;;4977910;28;20046;-80
2021/03/07 02:47:06;;;;;;;21.55;14.15;;;7.20;61.30;;;;;;4978400;28;20045;-81
2021/03/07 02:49:34;;;;;;;24.10;14.40;;;7.20;61.50;;;;;;4983926;28;20085;-80
2021/03/07 02:52:03;;;;;;;20.77;14.18;;;7.10;61.60;;;;;;4984634;28;20035;-80
2021/03/07 02:54:31;;;;;;;20.73;14.80;;;7.10;61.60;;;;;;4983957;28;20042;-81
2021/03/07 02:56:58;;;;;;;19.83;13.80;;;7.20;61.70;;;;;;4977910;28;20043;-80
2021/03/07 02:59:27;;;;;;;22.42;13.73;;;7.10;61.90;;;;;;4976795;28;20423;-80
2021/03/07 03:01:59;;;;;;;21.35;14.23;;;7.10;62.00;;;;;;4978063;28;20038;-80
2021/03/07 03:04:25;;;;;;;20.20;13.90;;;7.00;62.10;;;;;;4976377;28;20039;-80
2021/03/07 03:06:53;;;;;;;20.55;14.48;;;7.00;62.40;;;;;;4977307;28;20038;-80
2021/03/07 03:09:21;;;;;;;23.77;14.52;;;7.00;62.60;;;;;;4977775;28;20050;-80
2021/03/07 03:11:50;;;;;;;22.20;14.90;;;7.00;62.60;;;;;;4977948;28;20046;-80
2021/03/07 03:14:17;;;;;;;22.02;15.10;;;7.00;63.30;;;;;;4977794;28;20043;-79
2021/03/07 03:16:51;;;;;;;18.90;13.95;;;7.00;62.70;;;;;;4977171;28;20080;-80
2021/03/07 03:19:19;;;;;;;21.90;14.57;;;7.10;62.70;;;;;;4977245;28;20499;-80
2021/03/07 03:21:45;;;;;;;22.00;15.45;;;7.00;62.90;;;;;;4977661;28;20047;-80
2021/03/07 03:24:12;;;;;;;22.23;14.45;;;7.00;63.00;;;;;;4977555;28;20047;-79
2021/03/07 03:26:39;;;;;;;23.95;15.55;;;7.00;63.20;;;;;;4977686;28;20492;-80
2021/03/07 03:29:06;;;;;;;22.60;15.00;;;7.10;63.10;;;;;;4976183;28;20031;-79
2021/03/07 03:31:33;;;;;;;21.92;14.38;;;7.10;62.90;;;;;;4977576;28;20034;-79
2021/03/07 03:34:01;;;;;;;34.83;18.45;;;7.10;62.70;;;;;;4976210;28;20043;-79
2021/03/07 03:36:28;;;;;;;42.30;21.58;;;7.10;62.50;;;;;;4976068;28;20554;-80
2021/03/07 03:39:01;;;;;;;20.83;14.68;;;7.20;62.60;;;;;;4977525;28;20158;-80
2021/03/07 03:41:33;;;;;;;20.35;14.02;;;7.10;62.70;;;;;;4976086;28;20043;-80
2021/03/07 03:44:03;;;;;;;22.42;13.88;;;7.10;62.80;;;;;;4975639;28;20492;-80
2021/03/07 03:46:34;;;;;;;22.42;14.98;;;7.00;63.00;;;;;;4977239;28;20047;-80
2021/03/07 03:49:07;;;;;;;22.70;15.05;;;7.10;63.30;;;;;;4975455;28;20034;-80
2021/03/07 03:51:40;;;;;;;20.03;14.20;;;7.10;63.20;;;;;;4975925;28;20392;-80
2021/03/07 03:54:07;;;;;;;23.48;13.80;;;7.20;62.90;;;;;;4975875;28;20484;-80
2021/03/07 03:56:34;;;;;;;21.40;14.95;;;7.20;63.20;;;;;;4975825;28;20050;-80
2021/03/07 03:59:02;;;;;;;22.90;14.32;;;7.20;62.90;;;;;;4977265;28;20101;-80
2021/03/07 04:01:31;;;;;;;21.00;14.05;;;7.10;63.20;;;;;;4975948;28;20496;-80
2021/03/07 04:04:02;;;;;;;22.60;15.13;;;7.10;63.40;;;;;;4977599;28;20049;-80
2021/03/07 04:06:29;;;;;;;22.63;14.32;;;7.10;63.60;;;;;;4982509;28;20078;-80
2021/03/07 04:08:55;;;;;;;21.80;14.68;;;7.00;63.80;;;;;;4977045;28;20539;-80
2021/03/07 04:11:23;;;;;;;25.75;14.85;;;7.00;64.00;;;;;;4975618;28;20069;-80
2021/03/07 04:13:49;;;;;;;18.73;13.75;;;7.00;64.10;;;;;;4975577;28;20050;-80
2021/03/07 04:16:16;;;;;;;22.40;14.48;;;7.10;63.90;;;;;;4976699;28;20526;-80
2021/03/07 04:18:43;;;;;;;19.55;13.95;;;7.10;63.70;;;;;;4975296;28;20039;-80
2021/03/07 04:21:09;;;;;;;21.92;14.75;;;7.00;64.20;;;;;;4976468;28;20053;-80
2021/03/07 04:23:35;;;;;;;21.33;14.88;;;7.00;64.30;;;;;;4976431;28;20058;-80
2021/03/07 04:26:02;;;;;;;23.92;15.15;;;7.00;64.60;;;;;;4976544;28;20031;-80
2021/03/07 04:28:28;;;;;;;22.52;14.10;;;7.00;64.70;;;;;;4976292;28;20030;-80
2021/03/07 04:30:55;;;;;;;22.35;14.82;;;7.00;64.60;;;;;;4975554;28;20034;-79
2021/03/07 04:33:22;;;;;;;21.08;13.95;;;7.10;64.60;;;;;;4976268;28;20052;-80
2021/03/07 04:35:48;;;;;;;25.67;14.55;;;7.00;64.50;;;;;;4975053;28;20038;-80
2021/03/07 04:38:14;;;;;;;24.05;16.02;;;7.00;64.60;;;;;;4976688;28;20541;-80
2021/03/07 04:40:40;;;;;;;27.30;15.85;;;7.00;64.70;;;;;;4976277;28;20046;-80
2021/03/07 04:43:06;;;;;;;22.80;15.68;;;6.90;64.90;;;;;;4976385;28;20046;-80
2021/03/07 04:45:33;;;;;;;24.83;16.60;;;6.90;65.00;;;;;;4976229;28;20046;-80
2021/03/07 04:48:01;;;;;;;21.35;14.43;;;6.90;64.90;;;;;;4976064;28;20039;-80
2021/03/07 04:50:27;;;;;;;21.98;14.55;;;7.00;64.90;;;;;;4974979;28;20026;-80
2021/03/07 04:52:56;;;;;;;23.02;15.05;;;7.00;64.60;;;;;;4976347;28;20042;-80
2021/03/07 04:55:22;;;;;;;22.15;15.07;;;7.00;65.00;;;;;;4976674;28;20035;-80
2021/03/07 04:57:48;;;;;;;21.27;15.18;;;6.90;65.10;;;;;;4974520;28;20562;-80
2021/03/07 05:00:15;;;;;;;20.90;14.75;;;6.90;65.20;;;;;;4975005;28;20039;-80
2021/03/07 05:02:41;;;;;;;21.85;14.13;;;6.90;65.30;;;;;;4974760;28;20035;-81
2021/03/07 05:05:08;;;;;;;24.42;15.40;;;7.00;65.40;;;;;;4974947;28;20031;-81
2021/03/07 05:07:34;;;;;;;21.23;15.50;;;6.90;65.60;;;;;;4974398;28;20046;-81
2021/03/07 05:10:00;;;;;;;22.65;15.55;;;6.90;65.80;;;;;;4975973;28;20034;-81
2021/03/07 05:12:26;;;;;;;22.98;14.98;;;6.90;65.90;;;;;;4979902;28;20518;-81
2021/03/07 05:14:52;;;;;;;21.30;14.82;;;6.90;65.90;;;;;;4981811;28;20476;-81
2021/03/07 05:17:18;;;;;;;24.33;15.93;;;6.90;66.50;;;;;;4983119;28;20504;-81
2021/03/07 05:19:44;;;;;;;21.92;14.63;;;6.80;66.50;;;;;;4977201;28;20055;-81
2021/03/07 05:22:09;;;;;;;21.33;14.40;;;6.80;66.40;;;;;;4975447;28;20058;-81
2021/03/07 05:24:37;;;;;;;23.25;15.40;;;6.80;66.40;;;;;;4974405;28;20503;-81
2021/03/07 05:27:06;;;;;;;20.98;14.55;;;6.80;66.50;;;;;;4974723;28;20070;-81
2021/03/07 05:29:36;;;;;;;21.95;15.02;;;6.80;66.40;;;;;;4974142;28;20031;-81
2021/03/07 05:32:04;;;;;;;22.50;14.55;;;6.80;66.50;;;;;;4975529;28;20073;-81
2021/03/07 05:34:31;;;;;;;23.30;15.38;;;6.80;66.80;;;;;;4973919;28;20031;-81
2021/03/07 05:36:57;;;;;;;27.85;15.30;;;6.80;66.70;;;;;;4974128;28;20058;-81
2021/03/07 05:39:25;;;;;;;25.05;15.55;;;6.80;66.70;;;;;;4975355;28;20045;-81
2021/03/07 05:41:53;;;;;;;21.05;15.30;;;6.80;66.80;;;;;;4978024;28;20503;-82
2021/03/07 05:44:19;;;;;;;23.15;14.95;;;6.70;66.60;;;;;;4979012;28;20503;-81
2021/03/07 05:46:45;;;;;;;23.42;16.35;;;6.70;67.10;;;;;;4979144;28;20034;-81
2021/03/07 05:49:11;;;;;;;20.95;14.23;;;6.70;67.20;;;;;;4978997;28;20031;-81
2021/03/07 05:51:38;;;;;;;21.58;14.75;;;6.70;67.20;;;;;;4979159;28;20053;-80
2021/03/07 05:54:05;;;;;;;24.17;15.68;;;6.80;67.70;;;;;;4978876;28;20066;-81
2021/03/07 05:56:31;;;;;;;22.15;15.65;;;6.70;67.30;;;;;;4978154;28;20064;-81
2021/03/07 05:58:58;;;;;;;21.25;14.73;;;6.80;67.20;;;;;;4979013;28;20042;-80
2021/03/07 06:01:24;;;;;;;23.35;16.02;;;6.80;67.10;;;;;;4977950;28;20050;-80
2021/03/07 06:03:50;;;;;;;22.83;14.57;;;6.80;66.80;;;;;;4978815;28;20407;-80
2021/03/07 06:06:16;;;;;;;20.25;14.18;;;6.80;67.10;;;;;;4977771;28;20483;-80
2021/03/07 06:08:42;;;;;;;27.50;15.23;;;6.70;67.40;;;;;;4979112;28;20038;-80
2021/03/07 06:11:08;;;;;;;22.27;14.82;;;6.70;67.70;;;;;;4978732;28;20050;-80
2021/03/07 06:13:39;;;;;;;26.70;15.13;;;6.70;67.70;;;;;;4978683;28;20492;-80
2021/03/07 06:16:08;;;;;;;23.35;14.55;;;6.80;67.70;;;;;;4977230;28;20034;-80
2021/03/07 06:18:46;;;;;;;22.92;15.02;;;6.80;67.50;;;;;;4978792;28;20066;-80
2021/03/07 06:21:32;;;;;;;24.52;15.35;;;6.80;67.70;;;;;;4978620;28;20507;-80
2021/03/07 06:23:59;;;;;;;21.70;14.13;;;6.70;68.00;;;;;;4979293;28;20487;-80
2021/03/07 06:26:26;;;;;;;21.05;15.00;;;6.70;67.90;;;;;;4983628;28;20041;-80
2021/03/07 06:29:12;;;;;;;24.98;16.52;;;6.70;67.90;;;;;;4983497;28;20035;-80
2021/03/07 06:31:40;;;;;;;21.33;14.38;;;6.70;68.10;;;;;;4979454;28;20039;-80
2021/03/07 06:34:06;;;;;;;22.50;14.95;;;6.60;68.50;;;;;;4978414;28;20045;-80
2021/03/07 06:36:32;;;;;;;22.90;15.48;;;6.60;68.30;;;;;;4978651;28;20138;-80
2021/03/07 06:39:00;;;;;;;21.58;15.18;;;6.70;68.30;;;;;;4978589;28;20590;-80
2021/03/07 06:41:31;;;;;;;24.05;15.50;;;6.60;68.20;;;;;;4978385;28;20150;-80
2021/03/07 06:44:12;;;;;;;23.13;15.35;;;6.60;68.50;;;;;;4977216;28;20427;-80
2021/03/07 06:46:41;;;;;;;57.17;17.35;;;6.60;68.60;;;;;;4977001;28;20444;-80
2021/03/07 06:49:07;;;;;;;28.75;16.30;;;6.60;69.10;;;;;;4978119;28;20073;-81
2021/03/07 06:51:34;;;;;;;24.77;15.32;;;6.60;68.70;;;;;;4976729;28;20045;-80
2021/03/07 06:54:15;;;;;;;24.88;16.13;;;6.60;68.90;;;;;;4977002;28;20062;-81
2021/03/07 06:56:50;;;;;;;24.40;14.95;;;6.60;68.70;;;;;;4978499;28;20183;-81
2021/03/07 06:59:17;;;;;;;27.85;15.70;;;6.60;68.30;;;;;;4977940;28;20038;-80
2021/03/07 07:01:46;;;;;;;21.50;14.98;;;6.60;68.60;;;;;;4977071;28;20049;-80
2021/03/07 07:04:13;;;;;;;21.60;15.45;;;6.60;68.60;;;;;;4976631;28;20038;-80
2021/03/07 07:06:40;;;;;;;25.75;15.35;;;6.60;68.70;;;;;;4978004;28;20043;-80
2021/03/07 07:09:08;;;;;;;23.70;16.00;;;6.60;68.20;;;;;;4978160;28;20496;-80
2021/03/07 07:11:45;;;;;;;24.25;15.65;;;6.60;68.70;;;;;;4978173;28;20050;-80
2021/03/07 07:14:13;;;;;;;23.58;15.95;;;6.60;68.50;;;;;;4976818;28;20035;-80
2021/03/07 07:16:39;;;;;;;22.60;14.85;;;6.70;68.40;;;;;;4976462;28;20043;-80
2021/03/07 07:19:05;;;;;;;23.63;15.88;;;6.70;68.20;;;;;;4977482;28;20167;-80
2021/03/07 07:21:32;;;;;;;24.02;15.07;;;6.80;67.80;;;;;;4976494;28;20043;-81
2021/03/07 07:23:58;;;;;;;23.13;14.85;;;6.80;67.60;;;;;;4977483;28;20121;-82
2021/03/07 07:26:24;;;;;;;27.85;16.13;;;6.80;67.80;;;;;;4976194;28;20468;-80
2021/03/07 07:28:50;;;;;;;21.90;15.13;;;6.80;67.50;;;;;;4975946;28;20031;-80
2021/03/07 07:31:21;;;;;;;24.38;16.13;;;6.80;67.70;;;;;;4977926;28;20072;-80
2021/03/07 07:33:55;;;;;;;26.65;15.98;;;6.90;67.40;;;;;;4977196;28;20039;-80
2021/03/07 07:36:51;;;;;;;24.45;15.35;;;6.90;67.30;;;;;;4977477;28;20035;-80
2021/03/07 07:39:35;;;;;;;27.15;16.02;;;6.90;67.20;;;;;;4977507;28;20042;-80
2021/03/07 07:42:29;;;;;;;20.58;15.05;;;7.00;66.90;;;;;;4976099;28;20050;-80
2021/03/07 07:44:59;;;;;;;23.23;15.50;;;7.00;66.70;;;;;;4977276;28;20186;-80
2021/03/07 07:47:46;;;;;;;22.63;15.65;;;7.00;66.60;;;;;;4977055;28;20061;-82
2021/03/07 07:50:30;;;;;;;21.73;14.93;;;7.00;67.00;;;;;;4976806;28;20039;-82
2021/03/07 07:53:07;;;;;;;25.00;15.98;;;7.20;66.40;;;;;;4977162;28;20035;-81
2021/03/07 07:55:58;;;;;;;23.25;16.17;;;7.20;66.30;;;;;;4975549;28;20039;-81
2021/03/07 07:58:36;;;;;;;25.17;15.32;;;7.20;66.40;;;;;;4977151;28;20066;-78
2021/03/07 08:01:11;;;;;;;25.00;15.60;;;7.20;66.40;;;;;;4976815;28;20038;-77
2021/03/07 08:03:38;;;;;;;23.17;15.82;;;7.20;66.00;;;;;;4976944;28;20101;-77
2021/03/07 08:06:06;;;;;;;23.70;16.42;;;7.30;65.80;;;;;;4976840;28;20023;-77
2021/03/07 08:08:43;;;;;;;24.05;16.65;;;7.40;65.60;;;;;;4977043;28;20047;-77
2021/03/07 08:11:30;;;;;;;25.60;15.60;;;7.40;65.60;;;;;;4977279;28;20089;-77
2021/03/07 08:14:00;;;;;;;28.42;16.02;;;7.40;65.50;;;;;;4976748;28;20058;-77
2021/03/07 08:16:43;;;;;;;25.08;15.13;;;7.60;65.00;;;;;;4976723;28;20496;-77
2021/03/07 08:19:19;;;;;;;24.70;15.63;;;7.70;64.40;;;;;;4974909;28;20038;-77
2021/03/07 08:22:03;;;;;;;23.23;15.50;;;7.70;64.40;;;;;;4976903;28;20056;-77
2021/03/07 08:24:56;;;;;;;24.70;17.15;;;7.70;64.40;;;;;;4976188;28;20081;-77
2021/03/07 08:27:48;;;;;;;23.42;16.52;;;7.80;64.50;;;;;;4974558;28;20381;-77
2021/03/07 08:30:17;;;;;;;23.80;16.40;;;7.80;64.70;;;;;;4975817;28;20043;-78
2021/03/07 08:32:44;;;;;;;26.25;17.38;;;8.00;64.20;;;;;;4975977;28;20053;-84
2021/03/07 08:35:13;;;;;;;22.63;16.25;;;8.00;64.00;;;;;;4976275;28;20476;-77
2021/03/07 08:37:39;;;;;;;24.60;15.85;;;8.00;64.10;;;;;;4976075;28;20039;-78
2021/03/07 08:40:43;;;;;;;24.63;16.63;;;8.00;63.80;;;;;;4975826;28;20100;-78
2021/03/07 08:43:23;;;;;;;25.05;16.55;;;8.00;63.70;;;;;;4976261;28;20073;-77
2021/03/07 08:46:10;;;;;;;24.60;17.27;;;8.20;63.50;;;;;;4976085;28;20039;-78
2021/03/07 08:48:37;;;;;;;23.83;16.15;;;8.30;62.90;;;;;;4974206;28;20035;-78
2021/03/07 08:51:05;;;;;;;26.08;17.83;;;8.50;62.60;;;;;;4977260;28;20050;-78
2021/03/07 08:53:33;;;;;;;28.27;19.58;;;8.50;62.30;;;;;;4977413;28;20034;-78
2021/03/07 08:56:01;;;;;;;27.13;19.15;;;8.60;62.50;;;;;;4976240;28;20034;-78
2021/03/07 08:58:27;;;;;;;24.55;17.73;;;8.60;62.20;;;;;;4975806;28;20046;-78
2021/03/07 09:00:55;;;;;;;28.63;17.70;;;8.70;61.80;;;;;;4975783;28;20124;-78
2021/03/07 09:03:22;;;;;;;22.13;15.27;;;8.70;62.60;;;;;;4975635;28;20043;-78
2021/03/07 09:05:49;;;;;;;22.65;15.35;;;8.50;62.70;;;;;;4976093;28;20033;-82
2021/03/07 09:08:19;;;;;;;28.10;17.35;;;8.40;63.20;;;;;;4975407;28;20038;-78
2021/03/07 09:10:50;;;;;;;23.75;17.08;;;8.50;63.30;;;;;;4974588;28;20050;-78
2021/03/07 09:13:24;;;;;;;26.85;18.40;;;8.60;62.70;;;;;;4975844;28;20047;-78
2021/03/07 09:15:55;;;;;;;25.33;16.65;;;8.70;62.70;;;;;;4978022;28;20042;-78
2021/03/07 09:18:24;;;;;;;27.58;16.85;;;8.80;62.60;;;;;;4977830;28;20051;-77
2021/03/07 09:20:57;;;;;;;24.30;17.92;;;8.70;62.90;;;;;;4979548;28;20111;-78
2021/03/07 09:23:36;;;;;;;27.08;16.98;;;8.70;63.20;;;;;;4979837;28;20050;-78
2021/03/07 09:26:14;;;;;;;26.48;18.10;;;8.80;62.60;;;;;;4978405;28;20043;-78
2021/03/07 09:28:41;;;;;;;24.33;17.50;;;8.90;62.30;;;;;;4979781;28;20039;-78
2021/03/07 09:31:12;;;;;;;27.02;17.65;;;9.10;62.10;;;;;;4978481;28;20038;-78
2021/03/07 09:33:46;;;;;;;24.55;16.40;;;9.10;62.00;;;;;;4979357;28;20492;-78
2021/03/07 09:36:12;;;;;;;25.55;17.75;;;9.10;62.00;;;;;;4979610;28;20117;-77
2021/03/07 09:39:02;;;;;;;22.23;16.75;;;9.20;61.60;;;;;;4979192;28;20035;-77
2021/03/07 09:41:33;;;;;;;21.98;15.70;;;9.20;61.40;;;;;;4982403;28;20150;-77
2021/03/07 09:44:01;;;;;;;22.17;16.38;;;9.10;61.90;;;;;;4984008;28;20070;-77
2021/03/07 09:46:29;;;;;;;26.95;17.85;;;9.10;61.90;;;;;;4983063;28;20043;-77
2021/03/07 09:49:02;;;;;;;29.23;17.27;;;9.10;62.40;;;;;;4978756;28;20110;-77
2021/03/07 09:51:32;;;;;;;28.67;17.35;;;9.10;62.10;;;;;;4978845;28;20096;-78
2021/03/07 09:53:59;;;;;;;31.98;17.05;;;9.20;62.20;;;;;;4979343;28;20085;-77
2021/03/07 09:56:29;;;;;;;25.05;17.20;;;9.30;61.60;;;;;;4979205;28;20042;-77
2021/03/07 09:59:07;;;;;;;25.17;18.00;;;9.40;61.40;;;;;;4979939;28;20042;-78
2021/03/07 10:01:42;;;;;;;25.95;16.70;;;9.40;61.40;;;;;;4979443;28;20050;-78
2021/03/07 10:04:31;;;;;;;24.30;16.80;;;9.50;61.50;;;;;;4979485;28;20047;-78
2021/03/07 10:07:20;;;;;;;23.52;16.70;;;9.50;61.30;;;;;;4978654;28;20504;-78
2021/03/07 10:10:16;;;;;;;27.45;18.65;;;9.50;61.30;;;;;;4979379;28;20088;-78
2021/03/07 10:13:15;;;;;;;26.17;17.95;;;9.60;61.30;;;;;;4978504;28;20056;-78
2021/03/07 10:15:41;;;;;;;28.58;18.55;;;9.60;61.40;;;;;;4977999;28;20488;-78
2021/03/07 10:18:13;;;;;;;25.70;17.58;;;9.60;61.30;;;;;;4978447;28;20062;-78
2021/03/07 10:20:42;;;;;;;29.45;17.20;;;9.70;60.80;;;;;;4978390;28;20089;-78
2021/03/07 10:23:09;;;;;;;25.15;16.42;;;9.70;60.80;;;;;;4978455;28;20035;-78
2021/03/07 10:25:37;;;;;;;32.63;17.65;;;9.80;60.70;;;;;;4978193;28;20046;-77
2021/03/07 10:28:19;;;;;;;22.45;16.73;;;9.90;60.70;;;;;;4978669;28;20137;-78
2021/03/07 10:30:45;;;;;;;26.08;17.63;;;10.00;60.10;;;;;;4978782;28;20047;-78
2021/03/07 10:33:23;;;;;;;23.20;17.25;;;10.30;59.30;;;;;;4978331;28;20042;-78
2021/03/07 10:36:01;;;;;;;24.05;17.17;;;10.30;59.00;;;;;;4978732;28;20125;-78
2021/03/07 10:38:29;;;;;;;25.25;16.40;;;10.30;59.00;;;;;;4978926;28;20039;-77
2021/03/07 10:40:55;;;;;;;25.08;17.27;;;10.40;59.10;;;;;;4977932;28;20042;-78
2021/03/07 10:43:21;;;;;;;24.33;17.75;;;10.50;58.60;;;;;;4978515;28;20047;-78
2021/03/07 10:45:48;;;;;;;26.08;16.90;;;10.90;57.70;;;;;;4978016;28;20054;-78
2021/03/07 10:48:18;;;;;;;26.83;18.13;;;10.80;57.70;;;;;;4976106;28;20491;-78
2021/03/07 10:50:49;;;;;;;25.63;17.77;;;10.90;57.50;;;;;;4978050;28;20043;-78
2021/03/07 10:53:17;;;;;;;24.58;18.88;;;10.80;57.50;;;;;;4978006;28;20039;-78
2021/03/07 10:55:51;;;;;;;28.13;18.73;;;10.70;58.40;;;;;;4978090;28;20097;-78
2021/03/07 10:58:17;;;;;;;28.55;18.95;;;10.70;58.60;;;;;;4977995;28;20038;-78
2021/03/07 11:00:43;;;;;;;27.70;18.08;;;10.80;58.20;;;;;;4977810;28;20045;-78
2021/03/07 11:03:09;;;;;;;35.83;21.85;;;11.10;57.60;;;;;;4977831;28;20147;-78
2021/03/07 11:05:35;;;;;;;28.27;17.23;;;11.10;57.10;;;;;;4978287;28;20421;-77
2021/03/07 11:08:01;;;;;;;24.35;17.77;;;11.20;57.10;;;;;;4976256;28;20083;-77
2021/03/07 11:10:27;;;;;;;23.95;17.35;;;11.20;56.80;;;;;;4977668;28;20042;-78
2021/03/07 11:12:54;;;;;;;29.15;17.63;;;11.10;56.70;;;;;;4976158;28;20066;-77
2021/03/07 11:15:20;;;;;;;26.30;18.48;;;11.10;56.80;;;;;;4994022;28;20070;-78
2021/03/07 11:18:03;;;;;;;25.25;18.17;;;11.00;56.90;;;;;;5000324;28;20053;-77
2021/03/07 11:20:29;;;;;;;31.05;18.08;;;10.90;57.30;;;;;;4999614;28;20050;-77
2021/03/07 11:22:55;;;;;;;32.58;18.48;;;11.10;57.40;;;;;;4996489;28;20038;-76
2021/03/07 11:25:21;;;;;;;40.33;21.27;;;11.30;56.90;;;;;;4995253;28;20054;-76
2021/03/07 11:27:47;;;;;;;22.90;17.80;;;11.70;55.70;;;;;;4989438;28;20128;-76
2021/03/07 11:30:13;;;;;;;25.73;17.88;;;11.70;55.30;;;;;;4975784;28;20034;-76
2021/03/07 11:32:39;;;;;;;25.30;17.75;;;11.70;55.30;;;;;;4976916;28;20042;-76
2021/03/07 11:35:05;;;;;;;27.23;18.52;;;11.60;55.10;;;;;;4977001;28;20495;-75
2021/03/07 11:37:35;;;;;;;22.98;17.98;;;11.50;55.90;;;;;;4976229;28;20038;-76
2021/03/07 11:40:01;;;;;;;32.72;19.88;;;11.40;56.20;;;;;;4976527;28;20542;-76
2021/03/07 11:42:28;;;;;;;29.83;18.35;;;11.60;55.60;;;;;;4976790;28;20074;-76
2021/03/07 11:44:55;;;;;;;23.67;17.88;;;11.50;56.00;;;;;;4974594;28;20043;-76
2021/03/07 11:47:21;;;;;;;33.55;20.33;;;11.50;56.30;;;;;;4965815;28;20070;-76
2021/03/07 11:49:47;;;;;;;30.33;19.50;;;11.50;56.00;;;;;;4973112;28;20173;-76
2021/03/07 11:52:12;;;;;;;25.90;17.58;;;11.50;56.20;;;;;;4976252;28;20093;-76
2021/03/07 11:54:38;;;;;;;24.08;17.73;;;11.60;55.80;;;;;;4976218;28;20065;-76
2021/03/07 11:57:05;;;;;;;24.75;19.10;;;11.50;56.00;;;;;;4975255;28;20049;-76
2021/03/07 11:59:33;;;;;;;38.83;23.63;;;11.60;56.10;;;;;;4975878;28;20092;-76
2021/03/07 12:01:59;;;;;;;26.25;18.70;;;11.80;55.90;;;;;;4975381;28;20429;-77
2021/03/07 12:04:25;;;;;;;25.65;18.83;;;12.00;55.00;;;;;;4975861;28;20046;-77
2021/03/07 12:06:51;;;;;;;25.27;18.35;;;12.00;54.60;;;;;;4975209;28;20045;-76
2021/03/07 12:09:17;;;;;;;28.33;19.20;;;12.20;54.30;;;;;;4975919;28;20043;-77
2021/03/07 12:11:43;;;;;;;27.98;19.45;;;12.40;53.70;;;;;;4974621;28;20105;-77
2021/03/07 12:14:09;;;;;;;25.77;18.10;;;12.20;54.30;;;;;;4975049;28;20041;-77
2021/03/07 12:16:35;;;;;;;25.80;19.02;;;12.10;54.40;;;;;;4975455;28;20051;-77
2021/03/07 12:19:01;;;;;;;40.47;23.10;;;12.40;53.90;;;;;;4974869;28;20101;-77
2021/03/07 12:21:27;;;;;;;26.38;18.63;;;12.40;53.70;;;;;;4975392;28;20566;-77
2021/03/07 12:23:56;;;;;;;24.15;18.92;;;12.70;53.20;;;;;;4975140;28;20062;-77
2021/03/07 12:26:22;;;;;;;27.42;19.83;;;12.90;52.40;;;;;;4975781;28;20392;-77
2021/03/07 12:28:47;;;;;;;31.08;22.77;;;12.90;52.50;;;;;;4975700;28;20043;-77
2021/03/07 12:31:14;;;;;;;28.92;19.58;;;12.60;53.60;;;;;;4978604;28;20045;-81
2021/03/07 12:33:40;;;;;;;27.60;18.38;;;12.80;52.90;;;;;;4974684;28;20101;-80
2021/03/07 12:36:06;;;;;;;28.50;18.17;;;13.00;52.30;;;;;;4975883;28;20047;-80
2021/03/07 12:38:32;;;;;;;26.15;18.23;;;13.00;52.00;;;;;;4974035;28;20500;-81
2021/03/07 12:40:58;;;;;;;24.95;17.45;;;13.50;51.00;;;;;;4975455;28;20066;-81
2021/03/07 12:43:23;;;;;;;35.15;21.08;;;13.80;50.80;;;;;;4975146;28;20078;-80
2021/03/07 12:45:49;;;;;;;23.88;18.10;;;13.90;50.00;;;;;;4975677;28;20094;-80
2021/03/07 12:48:15;;;;;;;30.58;18.60;;;13.70;50.10;;;;;;4975468;28;20050;-80